sensor_id;sensor_type;location;lat;lon;timestamp;pressure;altitude;pressure_sealevel;temperature;humidity
59608;BME280;45426;44.726;10.390;2023-04-01T00:00:06;99440.03;;;13.56;100.00
59608;BME280;45426;44.726;10.390;2023-04-01T00:02:31;99433.38;;;13.54;100.00
59608;BME280;45426;44.726;10.390;2023-04-01T00:04:57;99440.19;;;13.33;100.00
59608;BME280;45426;44.726;10.390;2023-04-01T00:07:22;99449.41;;;13.21;100.00
59608;BME280;45426;44.726;10.390;2023-04-01T00:09:48;99465.06;;;13.28;100.00
59608;BME280;45426;44.726;10.390;2023-04-01T00:12:13;99477.50;;;12.08;100.00
59608;BME280;45426;44.726;10.390;2023-04-01T00:14:39;99469.75;;;11.87;100.00
59608;BME280;45426;44.726;10.390;2023-04-01T00:17:04;99474.72;;;11.81;100.00
59608;BME280;45426;44.726;10.390;2023-04-01T00:19:30;99470.31;;;12.19;100.00
59608;BME280;45426;44.726;10.390;2023-04-01T00:21:57;99456.81;;;12.30;100.00
59608;BME280;45426;44.726;10.390;2023-04-01T00:24:23;99451.00;;;12.32;100.00
59608;BME280;45426;44.726;10.390;2023-04-01T00:26:48;99447.63;;;11.89;100.00
59608;BME280;45426;44.726;10.390;2023-04-01T00:29:14;99457.00;;;11.91;100.00
59608;BME280;45426;44.726;10.390;2023-04-01T00:31:39;99458.63;;;11.50;100.00
59608;BME280;45426;44.726;10.390;2023-04-01T00:34:05;99462.66;;;11.36;100.00
59608;BME280;45426;44.726;10.390;2023-04-01T00:36:30;99467.06;;;11.44;100.00
59608;BME280;45426;44.726;10.390;2023-04-01T00:38:57;99465.34;;;12.02;100.00
59608;BME280;45426;44.726;10.390;2023-04-01T00:41:24;99463.69;;;12.20;100.00
59608;BME280;45426;44.726;10.390;2023-04-01T00:43:52;99468.06;;;12.02;100.00
59608;BME280;45426;44.726;10.390;2023-04-01T00:46:18;99469.56;;;11.76;100.00
59608;BME280;45426;44.726;10.390;2023-04-01T00:48:54;99458.66;;;12.22;100.00
59608;BME280;45426;44.726;10.390;2023-04-01T00:51:24;99449.28;;;12.20;100.00
59608;BME280;45426;44.726;10.390;2023-04-01T00:53:52;99446.94;;;11.92;100.00
59608;BME280;45426;44.726;10.390;2023-04-01T00:56:32;99461.22;;;11.42;100.00
59608;BME280;45426;44.726;10.390;2023-04-01T00:59:02;99455.06;;;11.69;100.00
59608;BME280;45426;44.726;10.390;2023-04-01T01:01:30;99457.56;;;11.35;100.00
59608;BME280;45426;44.726;10.390;2023-04-01T01:03:56;99454.91;;;11.58;100.00
59608;BME280;45426;44.726;10.390;2023-04-01T01:12:00;99446.03;;;10.99;100.00
59608;BME280;45426;44.726;10.390;2023-04-01T01:23:00;99431.97;;;10.74;100.00
59608;BME280;45426;44.726;10.390;2023-04-01T01:31:31;99412.44;;;9.97;100.00
59608;BME280;45426;44.726;10.390;2023-04-01T01:36:30;99414.03;;;9.82;100.00
59608;BME280;45426;44.726;10.390;2023-04-01T01:38:56;99414.66;;;9.60;100.00
59608;BME280;45426;44.726;10.390;2023-04-01T01:41:23;99415.38;;;9.73;100.00
59608;BME280;45426;44.726;10.390;2023-04-01T01:43:52;99414.91;;;9.86;100.00
59608;BME280;45426;44.726;10.390;2023-04-01T01:46:21;99413.81;;;10.07;100.00
59608;BME280;45426;44.726;10.390;2023-04-01T01:48:48;99402.31;;;9.78;100.00
59608;BME280;45426;44.726;10.390;2023-04-01T01:51:15;99405.25;;;10.05;100.00
59608;BME280;45426;44.726;10.390;2023-04-01T01:53:41;99410.72;;;9.41;100.00
59608;BME280;45426;44.726;10.390;2023-04-01T01:56:07;99408.25;;;9.36;100.00
59608;BME280;45426;44.726;10.390;2023-04-01T01:58:43;99415.25;;;10.01;100.00
59608;BME280;45426;44.726;10.390;2023-04-01T02:01:23;99424.09;;;9.66;100.00
59608;BME280;45426;44.726;10.390;2023-04-01T02:03:50;99420.69;;;9.69;100.00
59608;BME280;45426;44.726;10.390;2023-04-01T02:06:20;99413.91;;;10.10;100.00
59608;BME280;45426;44.726;10.390;2023-04-01T02:09:01;99409.78;;;10.17;100.00
59608;BME280;45426;44.726;10.390;2023-04-01T02:14:06;99419.97;;;9.72;100.00
59608;BME280;45426;44.726;10.390;2023-04-01T02:16:43;99425.41;;;9.72;100.00
59608;BME280;45426;44.726;10.390;2023-04-01T02:19:11;99428.28;;;9.03;100.00
59608;BME280;45426;44.726;10.390;2023-04-01T02:21:39;99437.78;;;8.81;100.00
59608;BME280;45426;44.726;10.390;2023-04-01T02:24:10;99436.47;;;9.35;100.00
59608;BME280;45426;44.726;10.390;2023-04-01T02:26:36;99444.31;;;9.84;100.00
59608;BME280;45426;44.726;10.390;2023-04-01T02:29:03;99439.47;;;10.09;100.00
59608;BME280;45426;44.726;10.390;2023-04-01T02:31:31;99436.91;;;10.17;100.00
59608;BME280;45426;44.726;10.390;2023-04-01T02:33:57;99441.47;;;9.97;100.00
59608;BME280;45426;44.726;10.390;2023-04-01T02:36:23;99436.50;;;10.31;100.00
59608;BME280;45426;44.726;10.390;2023-04-01T02:38:49;99444.78;;;10.22;100.00
59608;BME280;45426;44.726;10.390;2023-04-01T02:41:16;99457.25;;;8.46;100.00
59608;BME280;45426;44.726;10.390;2023-04-01T02:43:41;99462.75;;;8.62;100.00
59608;BME280;45426;44.726;10.390;2023-04-01T02:46:07;99447.13;;;8.84;100.00
59608;BME280;45426;44.726;10.390;2023-04-01T02:48:32;99456.72;;;9.53;100.00
59608;BME280;45426;44.726;10.390;2023-04-01T02:50:58;99462.69;;;9.75;100.00
59608;BME280;45426;44.726;10.390;2023-04-01T02:53:23;99469.91;;;9.39;100.00
59608;BME280;45426;44.726;10.390;2023-04-01T02:55:49;99472.22;;;9.85;100.00
59608;BME280;45426;44.726;10.390;2023-04-01T02:58:18;99475.81;;;9.73;100.00
59608;BME280;45426;44.726;10.390;2023-04-01T03:00:43;99471.84;;;9.70;100.00
59608;BME280;45426;44.726;10.390;2023-04-01T03:03:12;99471.34;;;9.81;100.00
59608;BME280;45426;44.726;10.390;2023-04-01T03:05:38;99480.47;;;9.44;100.00
59608;BME280;45426;44.726;10.390;2023-04-01T03:08:04;99481.81;;;9.66;100.00
59608;BME280;45426;44.726;10.390;2023-04-01T03:10:31;99483.16;;;9.73;100.00
59608;BME280;45426;44.726;10.390;2023-04-01T03:12:56;99485.44;;;8.98;100.00
59608;BME280;45426;44.726;10.390;2023-04-01T03:15:22;99492.59;;;9.19;100.00
59608;BME280;45426;44.726;10.390;2023-04-01T03:17:47;99490.19;;;8.36;100.00
59608;BME280;45426;44.726;10.390;2023-04-01T03:20:13;99497.41;;;8.20;100.00
59608;BME280;45426;44.726;10.390;2023-04-01T03:22:39;99490.06;;;8.45;100.00
59608;BME280;45426;44.726;10.390;2023-04-01T03:25:05;99483.19;;;8.10;100.00
59608;BME280;45426;44.726;10.390;2023-04-01T03:27:33;99483.91;;;7.49;100.00
59608;BME280;45426;44.726;10.390;2023-04-01T03:29:59;99484.97;;;7.82;100.00
59608;BME280;45426;44.726;10.390;2023-04-01T03:32:24;99482.56;;;7.55;100.00
59608;BME280;45426;44.726;10.390;2023-04-01T03:34:49;99492.03;;;7.62;100.00
59608;BME280;45426;44.726;10.390;2023-04-01T03:37:15;99487.81;;;7.97;100.00
59608;BME280;45426;44.726;10.390;2023-04-01T03:39:40;99486.25;;;8.46;100.00
59608;BME280;45426;44.726;10.390;2023-04-01T03:42:06;99494.22;;;8.54;100.00
59608;BME280;45426;44.726;10.390;2023-04-01T03:44:32;99492.06;;;8.60;100.00
59608;BME280;45426;44.726;10.390;2023-04-01T03:46:59;99486.44;;;8.28;100.00
59608;BME280;45426;44.726;10.390;2023-04-01T03:49:24;99497.34;;;7.70;100.00
59608;BME280;45426;44.726;10.390;2023-04-01T03:51:49;99504.28;;;8.05;100.00
59608;BME280;45426;44.726;10.390;2023-04-01T03:54:15;99497.84;;;8.59;100.00
59608;BME280;45426;44.726;10.390;2023-04-01T03:56:40;99495.88;;;8.84;100.00
59608;BME280;45426;44.726;10.390;2023-04-01T03:59:07;99504.09;;;8.87;100.00
59608;BME280;45426;44.726;10.390;2023-04-01T04:01:33;99496.59;;;8.56;100.00
59608;BME280;45426;44.726;10.390;2023-04-01T04:03:58;99493.22;;;8.22;100.00
59608;BME280;45426;44.726;10.390;2023-04-01T04:06:25;99503.72;;;8.24;100.00
59608;BME280;45426;44.726;10.390;2023-04-01T04:08:50;99498.19;;;8.32;100.00
59608;BME280;45426;44.726;10.390;2023-04-01T04:11:16;99507.44;;;8.56;100.00
59608;BME280;45426;44.726;10.390;2023-04-01T04:13:42;99513.75;;;8.23;100.00
59608;BME280;45426;44.726;10.390;2023-04-01T04:16:08;99514.00;;;7.27;100.00
59608;BME280;45426;44.726;10.390;2023-04-01T04:18:35;99506.63;;;7.94;100.00
59608;BME280;45426;44.726;10.390;2023-04-01T04:21:00;99504.00;;;7.06;100.00
59608;BME280;45426;44.726;10.390;2023-04-01T04:23:25;99507.53;;;7.86;100.00
59608;BME280;45426;44.726;10.390;2023-04-01T04:26:03;99510.31;;;7.10;100.00
59608;BME280;45426;44.726;10.390;2023-04-01T04:28:29;99529.63;;;8.00;100.00
59608;BME280;45426;44.726;10.390;2023-04-01T04:30:55;99532.84;;;7.14;100.00
59608;BME280;45426;44.726;10.390;2023-04-01T04:33:22;99540.31;;;7.96;100.00
59608;BME280;45426;44.726;10.390;2023-04-01T04:35:47;99533.56;;;7.24;100.00
59608;BME280;45426;44.726;10.390;2023-04-01T04:38:13;99542.66;;;7.73;100.00
59608;BME280;45426;44.726;10.390;2023-04-01T04:40:40;99547.75;;;6.99;100.00
59608;BME280;45426;44.726;10.390;2023-04-01T04:43:06;99546.25;;;6.30;100.00
59608;BME280;45426;44.726;10.390;2023-04-01T04:45:32;99541.78;;;5.87;100.00
59608;BME280;45426;44.726;10.390;2023-04-01T04:47:57;99548.44;;;5.98;100.00
59608;BME280;45426;44.726;10.390;2023-04-01T04:50:23;99547.56;;;6.54;100.00
59608;BME280;45426;44.726;10.390;2023-04-01T04:52:50;99556.88;;;6.65;100.00
59608;BME280;45426;44.726;10.390;2023-04-01T04:55:16;99560.59;;;6.13;100.00
59608;BME280;45426;44.726;10.390;2023-04-01T04:57:41;99565.72;;;6.06;100.00
59608;BME280;45426;44.726;10.390;2023-04-01T05:00:07;99567.91;;;7.23;100.00
59608;BME280;45426;44.726;10.390;2023-04-01T05:02:33;99570.16;;;7.00;100.00
59608;BME280;45426;44.726;10.390;2023-04-01T05:04:59;99557.16;;;6.43;100.00
59608;BME280;45426;44.726;10.390;2023-04-01T05:07:25;99559.72;;;5.83;100.00
59608;BME280;45426;44.726;10.390;2023-04-01T05:09:50;99559.47;;;5.58;100.00
59608;BME280;45426;44.726;10.390;2023-04-01T05:12:16;99554.34;;;6.30;100.00
59608;BME280;45426;44.726;10.390;2023-04-01T05:14:41;99563.50;;;6.08;100.00
59608;BME280;45426;44.726;10.390;2023-04-01T05:17:10;99556.50;;;6.46;100.00
59608;BME280;45426;44.726;10.390;2023-04-01T05:19:36;99561.66;;;5.74;100.00
59608;BME280;45426;44.726;10.390;2023-04-01T05:22:02;99564.75;;;7.00;100.00
59608;BME280;45426;44.726;10.390;2023-04-01T05:24:27;99544.97;;;7.08;100.00
59608;BME280;45426;44.726;10.390;2023-04-01T05:26:54;99551.25;;;7.00;100.00
59608;BME280;45426;44.726;10.390;2023-04-01T05:29:21;99552.81;;;7.55;100.00
59608;BME280;45426;44.726;10.390;2023-04-01T05:31:46;99552.28;;;8.08;100.00
59608;BME280;45426;44.726;10.390;2023-04-01T05:34:13;99547.72;;;7.87;100.00
59608;BME280;45426;44.726;10.390;2023-04-01T05:36:38;99554.84;;;7.25;100.00
59608;BME280;45426;44.726;10.390;2023-04-01T05:39:05;99555.19;;;7.78;100.00
59608;BME280;45426;44.726;10.390;2023-04-01T05:41:30;99553.75;;;8.05;100.00
59608;BME280;45426;44.726;10.390;2023-04-01T05:43:55;99566.84;;;6.73;100.00
59608;BME280;45426;44.726;10.390;2023-04-01T05:46:21;99567.03;;;7.10;100.00
59608;BME280;45426;44.726;10.390;2023-04-01T05:48:46;99569.41;;;6.91;100.00
59608;BME280;45426;44.726;10.390;2023-04-01T05:51:15;99575.69;;;7.04;100.00
59608;BME280;45426;44.726;10.390;2023-04-01T05:53:41;99575.88;;;6.77;100.00
59608;BME280;45426;44.726;10.390;2023-04-01T05:56:07;99576.16;;;6.55;100.00
59608;BME280;45426;44.726;10.390;2023-04-01T05:58:35;99587.13;;;7.00;100.00
59608;BME280;45426;44.726;10.390;2023-04-01T06:01:10;99575.78;;;7.83;100.00
59608;BME280;45426;44.726;10.390;2023-04-01T06:03:36;99568.94;;;7.97;100.00
59608;BME280;45426;44.726;10.390;2023-04-01T06:06:01;99575.44;;;9.32;100.00
59608;BME280;45426;44.726;10.390;2023-04-01T06:08:30;99574.19;;;9.86;100.00
59608;BME280;45426;44.726;10.390;2023-04-01T06:21:37;99552.63;;;14.87;100.00
59608;BME280;45426;44.726;10.390;2023-04-01T06:24:21;99558.88;;;16.22;100.00
59608;BME280;45426;44.726;10.390;2023-04-01T06:32:18;99550.59;;;24.43;100.00
59608;BME280;45426;44.726;10.390;2023-04-01T06:45:36;99568.75;;;22.41;100.00
59608;BME280;45426;44.726;10.390;2023-04-01T06:51:11;99583.28;;;26.89;100.00
59608;BME280;45426;44.726;10.390;2023-04-01T06:53:54;99566.31;;;30.07;100.00
59608;BME280;45426;44.726;10.390;2023-04-01T06:56:25;99574.09;;;29.67;100.00
59608;BME280;45426;44.726;10.390;2023-04-01T06:58:57;99583.47;;;24.45;100.00
59608;BME280;45426;44.726;10.390;2023-04-01T07:01:33;99560.59;;;29.66;100.00
59608;BME280;45426;44.726;10.390;2023-04-01T07:04:06;99569.34;;;27.08;100.00
59608;BME280;45426;44.726;10.390;2023-04-01T07:06:35;99573.28;;;25.74;100.00
59608;BME280;45426;44.726;10.390;2023-04-01T07:09:05;99569.19;;;26.93;100.00
59608;BME280;45426;44.726;10.390;2023-04-01T07:11:34;99565.56;;;25.47;100.00
59608;BME280;45426;44.726;10.390;2023-04-01T07:17:04;99566.72;;;30.82;83.42
59608;BME280;45426;44.726;10.390;2023-04-01T07:19:56;99568.09;;;31.39;81.78
59608;BME280;45426;44.726;10.390;2023-04-01T07:22:42;99564.84;;;27.72;100.00
59608;BME280;45426;44.726;10.390;2023-04-01T07:25:33;99557.22;;;33.10;69.61
59608;BME280;45426;44.726;10.390;2023-04-01T07:28:06;99544.66;;;31.15;80.51
59608;BME280;45426;44.726;10.390;2023-04-01T07:36:06;99557.44;;;25.30;100.00
59608;BME280;45426;44.726;10.390;2023-04-01T07:41:19;99538.84;;;26.95;100.00
59608;BME280;45426;44.726;10.390;2023-04-01T07:57:12;99540.78;;;34.74;55.33
59608;BME280;45426;44.726;10.390;2023-04-01T08:00:05;99551.31;;;30.45;60.84
59608;BME280;45426;44.726;10.390;2023-04-01T08:10:54;99540.03;;;30.86;79.32
59608;BME280;45426;44.726;10.390;2023-04-01T08:14:22;99542.38;;;30.47;76.02
59608;BME280;45426;44.726;10.390;2023-04-01T08:19:41;99537.47;;;30.21;100.00
59608;BME280;45426;44.726;10.390;2023-04-01T08:22:16;99539.41;;;28.60;100.00
59608;BME280;45426;44.726;10.390;2023-04-01T08:24:46;99531.66;;;31.12;100.00
59608;BME280;45426;44.726;10.390;2023-04-01T08:27:35;99523.66;;;31.05;100.00
59608;BME280;45426;44.726;10.390;2023-04-01T08:30:26;99530.69;;;29.42;100.00
59608;BME280;45426;44.726;10.390;2023-04-01T08:32:57;99536.47;;;25.61;100.00
59608;BME280;45426;44.726;10.390;2023-04-01T08:52:37;99542.34;;;23.92;100.00
59608;BME280;45426;44.726;10.390;2023-04-01T08:58:20;99537.47;;;24.56;100.00
59608;BME280;45426;44.726;10.390;2023-04-01T09:03:44;99516.56;;;24.87;63.40
59608;BME280;45426;44.726;10.390;2023-04-01T09:09:14;99534.84;;;25.82;57.73
59608;BME280;45426;44.726;10.390;2023-04-01T09:25:12;99542.31;;;25.94;56.13
59608;BME280;45426;44.726;10.390;2023-04-01T09:27:56;99536.13;;;24.13;100.00
59608;BME280;45426;44.726;10.390;2023-04-01T09:30:53;99541.69;;;23.88;100.00
59608;BME280;45426;44.726;10.390;2023-04-01T09:36:04;99537.75;;;23.47;100.00
59608;BME280;45426;44.726;10.390;2023-04-01T09:41:46;99549.09;;;23.78;100.00
59608;BME280;45426;44.726;10.390;2023-04-01T09:44:25;99541.53;;;23.78;100.00
59608;BME280;45426;44.726;10.390;2023-04-01T09:52:31;99537.06;;;23.17;100.00
59608;BME280;45426;44.726;10.390;2023-04-01T09:55:43;99533.28;;;24.39;100.00
59608;BME280;45426;44.726;10.390;2023-04-01T10:04:23;99539.94;;;22.84;100.00
59608;BME280;45426;44.726;10.390;2023-04-01T10:16:19;99532.78;;;24.18;100.00
59608;BME280;45426;44.726;10.390;2023-04-01T10:24:43;99524.69;;;23.98;100.00
59608;BME280;45426;44.726;10.390;2023-04-01T11:03:46;99485.75;;;24.72;100.00
59608;BME280;45426;44.726;10.390;2023-04-01T11:06:38;99485.34;;;25.05;100.00
59608;BME280;45426;44.726;10.390;2023-04-01T11:09:52;99482.78;;;24.66;100.00
59608;BME280;45426;44.726;10.390;2023-04-01T11:26:27;99472.13;;;24.65;100.00
59608;BME280;45426;44.726;10.390;2023-04-01T11:29:08;99462.03;;;24.80;81.38
59608;BME280;45426;44.726;10.390;2023-04-01T11:31:43;99467.47;;;25.15;67.58
59608;BME280;45426;44.726;10.390;2023-04-01T11:45:59;99459.88;;;25.06;54.58
59608;BME280;45426;44.726;10.390;2023-04-01T11:53:54;99452.28;;;24.75;52.29
59608;BME280;45426;44.726;10.390;2023-04-01T12:02:20;99445.28;;;24.62;51.59
59608;BME280;45426;44.726;10.390;2023-04-01T12:10:21;99439.16;;;24.32;63.41
59608;BME280;45426;44.726;10.390;2023-04-01T12:18:16;99425.41;;;24.72;58.75
59608;BME280;45426;44.726;10.390;2023-04-01T12:28:59;99416.91;;;24.67;55.91
59608;BME280;45426;44.726;10.390;2023-04-01T12:34:26;99424.41;;;24.57;60.00
59608;BME280;45426;44.726;10.390;2023-04-01T12:47:34;99421.31;;;24.55;55.53
59608;BME280;45426;44.726;10.390;2023-04-01T12:50:28;99425.41;;;24.50;60.25
59608;BME280;45426;44.726;10.390;2023-04-01T12:56:02;99416.88;;;24.22;51.33
59608;BME280;45426;44.726;10.390;2023-04-01T12:58:41;99409.25;;;24.14;53.92
59608;BME280;45426;44.726;10.390;2023-04-01T13:12:12;99395.41;;;24.58;59.03
59608;BME280;45426;44.726;10.390;2023-04-01T13:26:06;99369.56;;;23.56;52.14
59608;BME280;45426;44.726;10.390;2023-04-01T13:29:21;99373.25;;;24.23;52.10
59608;BME280;45426;44.726;10.390;2023-04-01T13:36:47;99371.63;;;23.78;55.33
59608;BME280;45426;44.726;10.390;2023-04-01T13:42:11;99379.13;;;23.90;55.07
59608;BME280;45426;44.726;10.390;2023-04-01T13:44:48;99374.75;;;23.80;54.63
59608;BME280;45426;44.726;10.390;2023-04-01T13:55:57;99370.91;;;23.52;57.36
59608;BME280;45426;44.726;10.390;2023-04-01T14:01:35;99359.63;;;23.08;55.64
59608;BME280;45426;44.726;10.390;2023-04-01T14:21:35;99354.03;;;23.59;53.55
59608;BME280;45426;44.726;10.390;2023-04-01T14:24:30;99358.84;;;23.33;57.99
59608;BME280;45426;44.726;10.390;2023-04-01T14:33:28;99346.75;;;23.39;54.35
59608;BME280;45426;44.726;10.390;2023-04-01T14:35:56;99348.66;;;23.17;56.42
59608;BME280;45426;44.726;10.390;2023-04-01T14:41:02;99351.75;;;22.80;56.46
59608;BME280;45426;44.726;10.390;2023-04-01T14:51:23;99345.47;;;23.05;58.67
59608;BME280;45426;44.726;10.390;2023-04-01T14:56:39;99347.03;;;23.06;58.56
59608;BME280;45426;44.726;10.390;2023-04-01T14:59:14;99350.41;;;22.98;60.99
59608;BME280;45426;44.726;10.390;2023-04-01T15:04:24;99335.91;;;22.94;50.93
59608;BME280;45426;44.726;10.390;2023-04-01T15:07:20;99343.00;;;22.82;49.95
59608;BME280;45426;44.726;10.390;2023-04-01T15:12:41;99333.81;;;22.85;52.06
59608;BME280;45426;44.726;10.390;2023-04-01T15:18:15;99339.41;;;22.43;52.92
59608;BME280;45426;44.726;10.390;2023-04-01T15:26:11;99326.13;;;22.51;54.55
59608;BME280;45426;44.726;10.390;2023-04-01T15:42:53;99329.06;;;22.31;50.96
59608;BME280;45426;44.726;10.390;2023-04-01T15:59:41;99341.91;;;21.79;56.29
59608;BME280;45426;44.726;10.390;2023-04-01T16:02:21;99353.59;;;21.70;56.97
59608;BME280;45426;44.726;10.390;2023-04-01T16:04:55;99348.19;;;20.81;72.10
59608;BME280;45426;44.726;10.390;2023-04-01T16:13:12;99355.88;;;19.42;78.68
59608;BME280;45426;44.726;10.390;2023-04-01T16:21:06;99342.63;;;19.33;89.01
59608;BME280;45426;44.726;10.390;2023-04-01T16:24:17;99352.72;;;19.44;89.45
59608;BME280;45426;44.726;10.390;2023-04-01T16:27:04;99346.56;;;19.09;100.00
59608;BME280;45426;44.726;10.390;2023-04-01T16:29:43;99350.81;;;18.86;100.00
59608;BME280;45426;44.726;10.390;2023-04-01T16:32:29;99346.41;;;18.92;100.00
59608;BME280;45426;44.726;10.390;2023-04-01T16:37:41;99341.31;;;18.91;100.00
59608;BME280;45426;44.726;10.390;2023-04-01T16:40:43;99338.94;;;19.44;100.00
59608;BME280;45426;44.726;10.390;2023-04-01T16:43:28;99334.25;;;19.40;100.00
59608;BME280;45426;44.726;10.390;2023-04-01T16:48:45;99338.03;;;19.50;100.00
59608;BME280;45426;44.726;10.390;2023-04-01T16:51:16;99327.94;;;19.16;100.00
59608;BME280;45426;44.726;10.390;2023-04-01T16:53:53;99334.94;;;18.97;100.00
59608;BME280;45426;44.726;10.390;2023-04-01T16:56:38;99330.00;;;19.12;100.00
59608;BME280;45426;44.726;10.390;2023-04-01T16:59:13;99331.00;;;18.98;100.00
59608;BME280;45426;44.726;10.390;2023-04-01T17:06:45;99347.34;;;18.82;100.00
59608;BME280;45426;44.726;10.390;2023-04-01T17:11:57;99345.81;;;18.47;100.00
59608;BME280;45426;44.726;10.390;2023-04-01T17:19:49;99338.28;;;18.20;100.00
59608;BME280;45426;44.726;10.390;2023-04-01T17:41:43;99347.69;;;16.69;100.00
59608;BME280;45426;44.726;10.390;2023-04-01T17:47:06;99352.91;;;16.38;100.00
59608;BME280;45426;44.726;10.390;2023-04-01T17:49:41;99356.09;;;16.19;100.00
59608;BME280;45426;44.726;10.390;2023-04-01T17:54:49;99365.03;;;16.44;100.00
59608;BME280;45426;44.726;10.390;2023-04-01T18:16:26;99386.63;;;15.02;100.00
59608;BME280;45426;44.726;10.390;2023-04-01T18:24:36;99382.00;;;15.67;100.00
59608;BME280;45426;44.726;10.390;2023-04-01T18:27:24;99374.16;;;16.13;100.00
59608;BME280;45426;44.726;10.390;2023-04-01T18:29:56;99379.66;;;15.91;100.00
59608;BME280;45426;44.726;10.390;2023-04-01T18:38:44;99375.69;;;16.21;100.00
59608;BME280;45426;44.726;10.390;2023-04-01T18:41:59;99383.00;;;16.53;100.00
59608;BME280;45426;44.726;10.390;2023-04-01T18:44:45;99379.56;;;16.30;100.00
59608;BME280;45426;44.726;10.390;2023-04-01T18:52:46;99384.75;;;15.89;100.00
59608;BME280;45426;44.726;10.390;2023-04-01T18:57:50;99391.41;;;15.81;100.00
59608;BME280;45426;44.726;10.390;2023-04-01T19:00:25;99387.06;;;15.65;100.00
59608;BME280;45426;44.726;10.390;2023-04-01T19:02:57;99385.91;;;15.41;100.00
59608;BME280;45426;44.726;10.390;2023-04-01T19:05:36;99398.44;;;15.60;100.00
59608;BME280;45426;44.726;10.390;2023-04-01T19:13:34;99396.88;;;15.74;100.00
59608;BME280;45426;44.726;10.390;2023-04-01T19:21:41;99392.97;;;15.64;100.00
59608;BME280;45426;44.726;10.390;2023-04-01T19:24:23;99395.69;;;15.67;100.00
59608;BME280;45426;44.726;10.390;2023-04-01T19:32:56;99403.91;;;15.93;100.00
59608;BME280;45426;44.726;10.390;2023-04-01T19:35:52;99399.19;;;15.97;100.00
59608;BME280;45426;44.726;10.390;2023-04-01T19:38:39;99402.72;;;15.97;100.00
59608;BME280;45426;44.726;10.390;2023-04-01T19:46:49;99403.13;;;15.52;100.00
59608;BME280;45426;44.726;10.390;2023-04-01T19:49:55;99396.06;;;15.59;100.00
59608;BME280;45426;44.726;10.390;2023-04-01T19:52:32;99394.53;;;15.79;100.00
59608;BME280;45426;44.726;10.390;2023-04-01T19:56:00;99395.28;;;15.72;100.00
59608;BME280;45426;44.726;10.390;2023-04-01T20:00:44;99392.09;;;14.99;100.00
59608;BME280;45426;44.726;10.390;2023-04-01T20:03:46;99402.22;;;14.84;100.00
59608;BME280;45426;44.726;10.390;2023-04-01T20:06:24;99401.44;;;14.83;100.00
59608;BME280;45426;44.726;10.390;2023-04-01T20:19:48;99406.84;;;14.69;100.00
59608;BME280;45426;44.726;10.390;2023-04-01T20:24:51;99415.28;;;14.42;100.00
59608;BME280;45426;44.726;10.390;2023-04-01T20:27:26;99416.22;;;14.71;100.00
59608;BME280;45426;44.726;10.390;2023-04-01T20:33:00;99416.34;;;15.04;100.00
59608;BME280;45426;44.726;10.390;2023-04-01T20:41:28;99417.19;;;15.44;100.00
59608;BME280;45426;44.726;10.390;2023-04-01T20:44:12;99419.19;;;15.79;100.00
59608;BME280;45426;44.726;10.390;2023-04-01T20:51:43;99414.09;;;15.99;100.00
59608;BME280;45426;44.726;10.390;2023-04-01T20:54:40;99408.53;;;16.35;100.00
59608;BME280;45426;44.726;10.390;2023-04-01T20:57:14;99414.47;;;16.01;100.00
59608;BME280;45426;44.726;10.390;2023-04-01T20:59:56;99413.72;;;15.76;100.00
59608;BME280;45426;44.726;10.390;2023-04-01T21:05:55;99413.66;;;15.32;100.00
59608;BME280;45426;44.726;10.390;2023-04-01T21:14:43;99417.16;;;15.15;100.00
59608;BME280;45426;44.726;10.390;2023-04-01T21:34:58;99423.03;;;15.42;100.00
59608;BME280;45426;44.726;10.390;2023-04-01T21:37:31;99424.53;;;15.04;100.00
59608;BME280;45426;44.726;10.390;2023-04-01T21:42:37;99423.81;;;15.43;100.00
59608;BME280;45426;44.726;10.390;2023-04-01T21:53:27;99429.56;;;14.87;100.00
59608;BME280;45426;44.726;10.390;2023-04-01T22:12:46;99434.44;;;14.49;100.00
59608;BME280;45426;44.726;10.390;2023-04-01T22:28:34;99436.25;;;15.01;100.00
59608;BME280;45426;44.726;10.390;2023-04-01T22:31:05;99440.69;;;14.46;100.00
59608;BME280;45426;44.726;10.390;2023-04-01T22:36:33;99438.94;;;14.93;100.00
59608;BME280;45426;44.726;10.390;2023-04-01T22:39:43;99436.22;;;14.97;100.00
59608;BME280;45426;44.726;10.390;2023-04-01T22:51:05;99439.66;;;14.10;100.00
59608;BME280;45426;44.726;10.390;2023-04-01T22:55:59;99444.72;;;13.22;100.00
59608;BME280;45426;44.726;10.390;2023-04-01T22:58:40;99435.03;;;13.25;100.00
59608;BME280;45426;44.726;10.390;2023-04-01T23:01:14;99437.22;;;13.49;100.00
59608;BME280;45426;44.726;10.390;2023-04-01T23:03:44;99437.22;;;13.94;100.00
59608;BME280;45426;44.726;10.390;2023-04-01T23:06:26;99449.69;;;12.79;100.00
59608;BME280;45426;44.726;10.390;2023-04-01T23:14:27;99447.22;;;13.34;100.00
59608;BME280;45426;44.726;10.390;2023-04-01T23:17:07;99452.81;;;13.97;100.00
59608;BME280;45426;44.726;10.390;2023-04-01T23:22:26;99452.94;;;14.11;100.00
59608;BME280;45426;44.726;10.390;2023-04-01T23:27:35;99477.56;;;13.70;100.00
59608;BME280;45426;44.726;10.390;2023-04-01T23:30:10;99492.91;;;13.11;100.00
59608;BME280;45426;44.726;10.390;2023-04-01T23:32:49;99489.28;;;13.33;100.00
59608;BME280;45426;44.726;10.390;2023-04-01T23:35:16;99486.88;;;12.94;100.00
59608;BME280;45426;44.726;10.390;2023-04-01T23:37:42;99478.53;;;13.48;100.00
59608;BME280;45426;44.726;10.390;2023-04-01T23:40:12;99491.09;;;13.56;100.00
59608;BME280;45426;44.726;10.390;2023-04-01T23:42:40;99491.25;;;13.02;100.00
59608;BME280;45426;44.726;10.390;2023-04-01T23:45:15;99496.03;;;13.09;100.00